Terminal Aerodrome Forecast
Issued by NWS Charleston, WV

Current Version | Previous Version | Text Only | Print | Product List | Glossary Off
Versions: 1 2 3 4 5 6 7 8 9 10 11 12 13 14 15 16 17 18 19 20 21 22 23 24 25 26 27 28 29 30 31

809
FTUS41 KRLX 280244 AAB
TAFCRW
TAF AMD
KCRW 280244Z 2803/2824 00000KT 6SM BR BKN110
     FM280400 00000KT 3SM BR BKN150
     FM281300 00000KT 6SM HZ VCSH BKN025
     FM281500 00000KT 6SM SHRA VCTS OVC040CB
     FM281700 25004KT 3SM SHRA VCTS OVC040CB
     FM282200 VRB03KT P6SM VCTS OVC035CB=

USA.gov is the U.S. government's official web portal to all federal, state and local government web resources and services.